createdAt,value
2023-04-05T00:01:40.850Z,0.74
2023-04-05T00:04:10.103Z,0.49
2023-04-05T00:06:39.978Z,0.91
2023-04-05T00:09:08.105Z,0.72
2023-04-05T00:11:36.274Z,0.80
2023-04-05T00:14:05.570Z,0.83
2023-04-05T00:16:34.699Z,0.82
2023-04-05T00:19:07.893Z,0.83
2023-04-05T00:21:38.106Z,0.73
2023-04-05T00:24:07.505Z,0.85
2023-04-05T00:26:37.227Z,0.71
2023-04-05T00:29:06.289Z,0.56
2023-04-05T00:31:34.466Z,0.80
2023-04-05T00:34:06.003Z,0.68
2023-04-05T00:36:34.187Z,0.74
2023-04-05T00:39:02.359Z,0.65
2023-04-05T00:41:30.949Z,0.43
2023-04-05T00:43:59.868Z,0.64
2023-04-05T00:46:29.670Z,0.51
2023-04-05T00:48:58.006Z,0.54
2023-04-05T00:51:27.570Z,0.51
2023-04-05T00:53:57.096Z,0.52
2023-04-05T00:56:26.056Z,0.47
2023-04-05T00:58:54.229Z,0.44
2023-04-05T01:01:25.062Z,0.33
2023-04-05T01:03:55.482Z,0.38
2023-04-05T01:06:39.026Z,0.32
2023-04-05T01:09:23.445Z,0.25
2023-04-05T01:11:54.029Z,0.64
2023-04-05T01:14:23.219Z,0.13
2023-04-05T01:16:58.099Z,0.05
2023-04-05T01:19:29.945Z,0.03
2023-04-05T01:22:41.243Z,0.04
2023-04-05T01:25:32.796Z,0.02
2023-04-05T01:28:30.951Z,0.15
2023-04-05T01:31:08.968Z,0.11
2023-04-05T01:33:48.886Z,0.07
2023-04-05T01:36:27.232Z,0.17
2023-04-05T01:38:56.059Z,0.16
2023-04-05T01:41:26.159Z,0.23
2023-04-05T01:43:54.355Z,0.21
2023-04-05T01:46:24.465Z,0.24
2023-04-05T01:48:52.690Z,0.32
2023-04-05T01:51:21.209Z,0.39
2023-04-05T01:53:49.453Z,0.31
2023-04-05T01:56:18.014Z,0.17
2023-04-05T01:58:46.320Z,0.14
2023-04-05T02:01:14.561Z,0.11
2023-04-05T02:03:56.286Z,0.14
2023-04-05T02:06:24.585Z,0.18
2023-04-05T02:08:52.796Z,0.06
2023-04-05T02:11:21.089Z,0.11
2023-04-05T02:13:49.276Z,0.17
2023-04-05T02:16:18.517Z,0.16
2023-04-05T02:18:50.718Z,0.11
2023-04-05T02:21:21.819Z,0.04
2023-04-05T02:23:50.017Z,-0.03
2023-04-05T02:26:19.291Z,0.12
2023-04-05T02:28:47.878Z,0.14
2023-04-05T02:31:16.208Z,0.03
2023-04-05T02:33:44.555Z,-0.02
2023-04-05T02:36:14.276Z,0.07
2023-04-05T02:38:44.048Z,0.14
2023-04-05T02:41:12.729Z,0.03
2023-04-05T02:43:41.151Z,-0.03
2023-04-05T02:46:09.385Z,-1.24
2023-04-05T02:48:41.935Z,-0.09
2023-04-05T02:51:11.587Z,-0.08
2023-04-05T02:53:44.943Z,-0.12
2023-04-05T02:56:15.836Z,-0.09
2023-04-05T02:58:48.857Z,-0.18
2023-04-05T03:01:20.567Z,-0.15
2023-04-05T03:03:48.884Z,-0.25
2023-04-05T03:06:17.681Z,-0.27
2023-04-05T03:08:51.811Z,-0.29
2023-04-05T03:11:24.103Z,-0.32
2023-04-05T03:13:56.895Z,-0.54
2023-04-05T03:16:35.900Z,-0.61
2023-04-05T03:19:11.686Z,-0.68
2023-04-05T03:21:46.345Z,-0.77
2023-04-05T03:24:37.391Z,-0.75
2023-04-05T03:27:08.919Z,-0.85
2023-04-05T03:29:55.128Z,-0.87
2023-04-05T03:32:23.516Z,-0.81
2023-04-05T03:34:59.404Z,-0.88
2023-04-05T03:37:28.078Z,-0.94
2023-04-05T03:40:06.810Z,-0.93
2023-04-05T03:42:36.362Z,-1.04
2023-04-05T03:45:06.114Z,-1.06
2023-04-05T03:47:34.876Z,-1.07
2023-04-05T03:50:10.431Z,-1.00
2023-04-05T03:52:38.600Z,-1.01
2023-04-05T03:55:09.801Z,-0.90
2023-04-05T03:57:39.680Z,-1.08
2023-04-05T04:00:23.849Z,-1.17
2023-04-05T04:03:10.685Z,-1.13
2023-04-05T04:05:43.264Z,-1.15
2023-04-05T04:08:13.690Z,-1.08
2023-04-05T04:10:43.498Z,-1.14
2023-04-05T04:13:22.256Z,-1.16
2023-04-05T04:16:08.167Z,-1.22
2023-04-05T04:18:47.836Z,-1.31
2023-04-05T04:21:25.539Z,-1.42
2023-04-05T04:24:02.485Z,-1.53
2023-04-05T04:27:03.921Z,-1.68
2023-04-05T04:29:56.631Z,-1.71
2023-04-05T04:32:58.069Z,-1.86
2023-04-05T04:35:39.125Z,-1.79
2023-04-05T04:38:26.751Z,-1.81
2023-04-05T04:41:15.238Z,-1.87
2023-04-05T04:44:06.131Z,-1.83
2023-04-05T04:47:01.488Z,-1.95
2023-04-05T04:49:47.240Z,-1.95
2023-04-05T04:52:15.568Z,-1.87
2023-04-05T04:54:43.766Z,-2.10
2023-04-05T04:57:11.986Z,-2.03
2023-04-05T04:59:48.015Z,-1.95
2023-04-05T05:02:16.537Z,-1.99
2023-04-05T05:04:44.749Z,-1.94
2023-04-05T05:07:12.907Z,-1.94
2023-04-05T05:09:41.092Z,-1.94
2023-04-05T05:12:09.380Z,-1.98
2023-04-05T05:14:37.594Z,-1.87
2023-04-05T05:17:08.779Z,-1.95
2023-04-05T05:19:37.056Z,-1.80
2023-04-05T05:22:06.581Z,-1.83
2023-04-05T05:24:34.756Z,-1.76
2023-04-05T05:27:03.015Z,-1.93
2023-04-05T05:29:31.720Z,-1.76
2023-04-05T05:32:00.222Z,-1.71
2023-04-05T05:34:29.896Z,-1.68
2023-04-05T05:36:59.884Z,-1.65
2023-04-05T05:39:28.306Z,-1.64
2023-04-05T05:41:56.556Z,-1.43
2023-04-05T05:44:24.758Z,-1.37
2023-04-05T05:46:54.052Z,-1.32
2023-04-05T05:49:23.686Z,-1.38
2023-04-05T05:51:53.737Z,-1.35
2023-04-05T05:54:22.140Z,-1.25
2023-04-05T05:56:50.461Z,-1.18
2023-04-05T05:59:18.758Z,-1.07
2023-04-05T06:01:47.540Z,-1.01
2023-04-05T06:04:16.552Z,-1.02
2023-04-05T06:06:54.596Z,-0.95
2023-04-05T06:09:23.377Z,-0.77
2023-04-05T06:11:56.251Z,-0.89
2023-04-05T06:14:25.796Z,-0.54
2023-04-05T06:16:54.306Z,-0.48
2023-04-05T06:19:22.541Z,-0.35
2023-04-05T06:21:50.875Z,-0.14
2023-04-05T06:24:21.001Z,-0.08
2023-04-05T06:26:49.173Z,-0.04
2023-04-05T06:29:17.371Z,0.03
2023-04-05T06:31:46.615Z,0.12
2023-04-05T06:34:15.513Z,0.30
2023-04-05T06:36:43.810Z,0.47
2023-04-05T06:39:11.974Z,0.66
2023-04-05T06:41:41.864Z,0.77
2023-04-05T06:44:10.069Z,0.96
2023-04-05T06:46:38.215Z,1.17
2023-04-05T06:49:06.435Z,1.20
2023-04-05T06:51:34.591Z,1.28
2023-04-05T06:54:02.764Z,1.52
2023-04-05T06:56:31.244Z,1.62
2023-04-05T06:59:07.033Z,1.80
2023-04-05T07:01:35.859Z,2.06
2023-04-05T07:04:04.354Z,2.00
2023-04-05T07:06:34.563Z,2.13
2023-04-05T07:09:03.995Z,2.08
2023-04-05T07:11:32.883Z,2.26
2023-04-05T07:14:02.499Z,2.49
2023-04-05T07:16:30.808Z,2.64
2023-04-05T07:18:59.049Z,2.86
2023-04-05T07:21:27.227Z,2.93
2023-04-05T07:24:00.698Z,3.19
2023-04-05T07:26:29.319Z,3.32
2023-04-05T07:28:57.493Z,3.54
2023-04-05T07:31:27.395Z,3.70
2023-04-05T07:33:55.986Z,3.96
2023-04-05T07:36:24.526Z,4.11
2023-04-05T07:38:52.875Z,4.06
2023-04-05T07:41:21.350Z,4.24
2023-04-05T07:43:50.008Z,4.40
2023-04-05T07:46:18.451Z,4.62
2023-04-05T07:48:49.587Z,5.23
2023-04-05T07:51:17.910Z,4.86
2023-04-05T07:53:46.323Z,4.96
2023-04-05T07:56:15.319Z,4.95
2023-04-05T07:58:43.947Z,5.17
2023-04-05T08:01:12.801Z,5.27
2023-04-05T08:03:41.359Z,5.55
2023-04-05T08:06:17.646Z,5.07
2023-04-05T08:08:46.256Z,5.65
2023-04-05T08:11:14.695Z,5.59
2023-04-05T08:13:43.992Z,5.54
2023-04-05T08:16:13.204Z,5.62
2023-04-05T08:18:41.436Z,5.80
2023-04-05T08:21:09.659Z,5.66
2023-04-05T08:23:39.227Z,5.83
2023-04-05T08:26:07.809Z,5.88
2023-04-05T08:28:36.388Z,5.72
2023-04-05T08:31:04.710Z,5.88
2023-04-05T08:33:32.962Z,5.96
2023-04-05T08:36:06.319Z,6.04
2023-04-05T08:38:34.598Z,6.06
2023-04-05T08:41:15.660Z,6.34
2023-04-05T08:43:57.294Z,6.66
2023-04-05T08:46:27.063Z,6.50
2023-04-05T08:48:56.276Z,6.44
2023-04-05T08:51:26.902Z,6.46
2023-04-05T08:53:55.698Z,6.28
2023-04-05T08:56:28.500Z,6.21
2023-04-05T08:59:03.955Z,6.46
2023-04-05T09:01:34.557Z,6.25
2023-04-05T09:04:07.240Z,6.11
2023-04-05T09:06:37.203Z,6.36
2023-04-05T09:09:09.146Z,6.38
2023-04-05T09:11:39.674Z,6.46
2023-04-05T09:14:08.709Z,6.65
2023-04-05T09:16:40.224Z,6.60
2023-04-05T09:19:09.973Z,6.79
2023-04-05T09:21:59.163Z,6.95
2023-04-05T09:24:40.827Z,6.77
2023-04-05T09:27:12.135Z,7.39
2023-04-05T09:29:42.609Z,7.51
2023-04-05T09:32:13.194Z,7.44
2023-04-05T09:34:42.933Z,7.30
2023-04-05T09:37:22.514Z,8.09
2023-04-05T09:39:52.559Z,8.13
2023-04-05T09:42:24.114Z,8.47
2023-04-05T09:44:54.534Z,8.43
2023-04-05T09:47:25.850Z,8.72
2023-04-05T09:49:58.598Z,8.43
2023-04-05T09:52:29.142Z,8.92
2023-04-05T09:54:59.926Z,9.10
2023-04-05T09:57:30.644Z,9.22
2023-04-05T09:59:59.068Z,9.17
2023-04-05T10:02:37.895Z,8.97
2023-04-05T10:05:11.621Z,9.50
2023-04-05T10:07:40.793Z,9.48
2023-04-05T10:10:12.245Z,9.62
2023-04-05T10:12:43.110Z,9.73
2023-04-05T10:15:14.174Z,9.80
2023-04-05T10:17:51.410Z,9.97
2023-04-05T10:20:21.543Z,9.76
2023-04-05T10:23:02.824Z,10.29
2023-04-05T10:25:52.596Z,10.18
2023-04-05T10:28:31.818Z,10.44
2023-04-05T10:31:14.164Z,10.29
2023-04-05T10:33:47.624Z,10.57
2023-04-05T10:36:27.013Z,10.64
2023-04-05T10:39:04.818Z,10.68
2023-04-05T10:41:38.028Z,10.37
2023-04-05T10:44:24.833Z,10.43
2023-04-05T10:46:55.863Z,10.86
2023-04-05T10:49:35.323Z,10.07
2023-04-05T10:52:04.428Z,9.92
2023-04-05T10:54:36.979Z,9.88
2023-04-05T10:57:09.636Z,9.88
2023-04-05T10:59:44.372Z,10.33
2023-04-05T11:02:13.343Z,10.01
2023-04-05T11:04:42.700Z,10.30
2023-04-05T11:07:16.867Z,10.40
2023-04-05T11:09:58.253Z,11.02
2023-04-05T11:13:08.834Z,11.37
2023-04-05T11:15:39.917Z,10.59
2023-04-05T11:18:11.425Z,10.55
2023-04-05T11:20:45.219Z,10.28
2023-04-05T11:23:16.027Z,10.31
2023-04-05T11:25:51.671Z,10.19
2023-04-05T11:28:30.064Z,10.60
2023-04-05T11:31:13.544Z,11.20
2023-04-05T11:33:59.493Z,11.74
2023-04-05T11:36:33.842Z,12.03
2023-04-05T11:39:30.556Z,12.35
2023-04-05T11:42:02.813Z,12.21
2023-04-05T11:44:41.246Z,11.90
2023-04-05T11:47:11.916Z,12.10
2023-04-05T11:49:40.603Z,11.50
2023-04-05T11:52:14.856Z,11.42
2023-04-05T11:54:47.112Z,10.55
2023-04-05T11:57:19.742Z,10.11
2023-04-05T11:59:47.994Z,10.42
2023-04-05T12:02:17.842Z,10.54
2023-04-05T12:04:49.711Z,11.13
2023-04-05T12:07:19.864Z,11.58
2023-04-05T12:10:09.852Z,12.02
2023-04-05T12:12:40.503Z,12.35
2023-04-05T12:15:13.433Z,12.19
2023-04-05T12:17:49.251Z,12.59
2023-04-05T12:20:20.560Z,13.22
2023-04-05T12:22:50.631Z,13.04
2023-04-05T12:25:20.507Z,13.31
2023-04-05T12:27:49.303Z,13.92
2023-04-05T12:30:19.324Z,13.45
2023-04-05T12:32:52.149Z,13.15
2023-04-05T12:35:24.377Z,13.13
2023-04-05T12:37:53.091Z,13.03
2023-04-05T12:40:24.435Z,13.85
2023-04-05T12:42:53.017Z,14.26
2023-04-05T12:45:25.034Z,13.23
2023-04-05T12:47:58.468Z,12.30
2023-04-05T12:50:29.245Z,12.37
2023-04-05T12:52:59.986Z,12.67
2023-04-05T12:55:29.982Z,12.31
2023-04-05T12:58:01.399Z,12.67
2023-04-05T13:00:31.470Z,13.14
2023-04-05T13:03:01.389Z,13.46
2023-04-05T13:05:31.299Z,13.67
2023-04-05T13:07:59.952Z,13.46
2023-04-05T13:10:28.481Z,13.43
2023-04-05T13:12:57.006Z,13.82
2023-04-05T13:15:25.308Z,14.23
2023-04-05T13:17:55.074Z,12.56
2023-04-05T13:20:24.893Z,12.39
2023-04-05T13:22:53.163Z,12.25
2023-04-05T13:25:21.372Z,12.59
2023-04-05T13:27:49.844Z,12.44
2023-04-05T13:30:18.580Z,12.76
2023-04-05T13:32:47.032Z,11.53
2023-04-05T13:35:16.111Z,11.68
2023-04-05T13:37:45.999Z,12.11
2023-04-05T13:40:14.296Z,12.25
2023-04-05T13:42:42.598Z,13.46
2023-04-05T13:45:12.141Z,13.10
2023-04-05T13:47:40.425Z,12.75
2023-04-05T13:50:09.865Z,12.85
2023-04-05T13:52:38.506Z,13.07
2023-04-05T13:55:09.062Z,13.60
2023-04-05T13:57:37.441Z,13.26
2023-04-05T14:00:08.109Z,13.11
2023-04-05T14:02:43.012Z,13.84
2023-04-05T14:05:11.519Z,13.87
2023-04-05T14:07:40.416Z,14.10
2023-04-05T14:10:12.277Z,14.81
2023-04-05T14:12:40.683Z,14.88
2023-04-05T14:15:09.801Z,14.59
2023-04-05T14:17:38.009Z,14.33
2023-04-05T14:20:08.173Z,13.37
2023-04-05T14:22:36.351Z,13.63
2023-04-05T14:25:04.959Z,14.07
2023-04-05T14:27:35.968Z,14.15
2023-04-05T14:30:04.650Z,14.83
2023-04-05T14:32:33.865Z,14.64
2023-04-05T14:35:02.440Z,15.59
2023-04-05T14:37:30.630Z,15.90
2023-04-05T14:39:58.791Z,16.48
2023-04-05T14:42:37.216Z,16.51
2023-04-05T14:45:15.283Z,16.70
2023-04-05T14:47:43.546Z,16.10
2023-04-05T14:50:12.383Z,16.23
2023-04-05T14:52:40.926Z,16.46
2023-04-05T14:55:12.395Z,16.54
2023-04-05T14:57:41.454Z,16.73
2023-04-05T15:00:11.964Z,16.96
2023-04-05T15:02:42.141Z,16.71
2023-04-05T15:05:11.296Z,16.52
2023-04-05T15:07:39.691Z,16.48
2023-04-05T15:10:08.895Z,16.90
2023-04-05T15:12:37.171Z,16.33
2023-04-05T15:15:07.194Z,15.96
2023-04-05T15:17:35.494Z,15.95
2023-04-05T15:20:05.968Z,15.65
2023-04-05T15:22:35.914Z,15.32
2023-04-05T15:25:04.653Z,15.22
2023-04-05T15:27:32.918Z,14.55
2023-04-05T15:30:01.130Z,14.89
2023-04-05T15:32:33.536Z,14.96
2023-04-05T15:35:02.066Z,14.74
2023-04-05T15:37:31.669Z,14.49
2023-04-05T15:40:10.312Z,14.26
2023-04-05T15:42:38.619Z,14.24
2023-04-05T15:45:08.559Z,13.96
2023-04-05T15:47:37.058Z,14.44
2023-04-05T15:50:06.321Z,14.75
2023-04-05T15:52:36.281Z,14.85
2023-04-05T15:55:05.752Z,15.02
2023-04-05T15:57:35.288Z,15.43
2023-04-05T16:00:03.982Z,16.13
2023-04-05T16:02:38.440Z,16.44
2023-04-05T16:05:07.489Z,16.69
2023-04-05T16:07:35.828Z,16.96
2023-04-05T16:10:04.436Z,16.82
2023-04-05T16:12:34.050Z,17.09
2023-04-05T16:15:02.414Z,16.94
2023-04-05T16:17:30.849Z,16.90
2023-04-05T16:19:59.147Z,16.46
2023-04-05T16:22:28.537Z,16.57
2023-04-05T16:24:56.718Z,16.37
2023-04-05T16:27:24.927Z,16.19
2023-04-05T16:29:54.556Z,16.38
2023-04-05T16:32:23.174Z,15.33
2023-04-05T16:34:51.726Z,15.55
2023-04-05T16:37:20.823Z,14.79
2023-04-05T16:39:49.239Z,14.96
2023-04-05T16:42:17.370Z,15.09
2023-04-05T16:44:45.510Z,15.01
2023-04-05T16:47:15.051Z,15.08
2023-04-05T16:49:43.336Z,15.26
2023-04-05T16:52:11.540Z,14.99
2023-04-05T16:54:39.748Z,14.90
2023-04-05T16:57:07.931Z,14.79
2023-04-05T16:59:36.171Z,14.73
2023-04-05T17:02:04.467Z,14.60
2023-04-05T17:04:34.645Z,14.42
2023-04-05T17:07:04.461Z,14.33
2023-04-05T17:09:33.294Z,13.62
2023-04-05T17:12:01.496Z,13.52
2023-04-05T17:14:29.649Z,13.14
2023-04-05T17:16:58.017Z,12.87
2023-04-05T17:19:26.525Z,12.48
2023-04-05T17:21:56.217Z,12.27
2023-04-05T17:24:26.695Z,12.10
2023-04-05T17:26:54.921Z,11.87
2023-04-05T17:29:23.088Z,11.69
2023-04-05T17:31:52.116Z,11.46
2023-04-05T17:34:20.340Z,11.35
2023-04-05T17:36:48.462Z,11.17
2023-04-05T17:39:18.197Z,10.99
2023-04-05T17:41:46.681Z,10.80
2023-04-05T17:44:16.550Z,10.59
2023-04-05T17:46:51.036Z,10.54
2023-04-05T17:49:25.904Z,10.32
2023-04-05T17:51:54.074Z,10.11
2023-04-05T17:54:23.629Z,10.15
2023-04-05T17:56:52.028Z,10.02
2023-04-05T17:59:20.249Z,9.72
2023-04-05T18:01:53.499Z,9.75
2023-04-05T18:04:38.654Z,9.47
2023-04-05T18:07:07.529Z,9.27
2023-04-05T18:09:38.425Z,9.10
2023-04-05T18:12:06.906Z,8.99
2023-04-05T18:14:36.221Z,8.93
2023-04-05T18:17:06.895Z,8.71
2023-04-05T18:19:35.163Z,8.94
2023-04-05T18:22:03.486Z,8.81
2023-04-05T18:24:31.739Z,8.77
2023-04-05T18:27:02.091Z,8.71
2023-04-05T18:29:30.794Z,8.56
2023-04-05T18:31:59.232Z,8.17
2023-04-05T18:34:27.490Z,8.23
2023-04-05T18:36:55.677Z,8.03
2023-04-05T18:39:26.224Z,7.95
2023-04-05T18:41:55.888Z,7.82
2023-04-05T18:44:26.072Z,7.55
2023-04-05T18:46:54.644Z,7.48
2023-04-05T18:49:23.026Z,7.34
2023-04-05T18:51:51.275Z,7.23
2023-04-05T18:54:20.288Z,7.19
2023-04-05T18:56:48.473Z,5.98
2023-04-05T18:59:17.442Z,7.02
2023-04-05T19:01:47.202Z,6.70
2023-04-05T19:04:16.335Z,6.65
2023-04-05T19:06:44.703Z,6.47
2023-04-05T19:09:12.935Z,6.57
2023-04-05T19:11:41.118Z,6.39
2023-04-05T19:14:09.295Z,6.33
2023-04-05T19:16:37.571Z,6.41
2023-04-05T19:19:07.494Z,6.31
2023-04-05T19:21:36.183Z,6.21
2023-04-05T19:24:05.316Z,6.25
2023-04-05T19:26:33.712Z,6.29
2023-04-05T19:29:01.923Z,6.11
2023-04-05T19:31:30.700Z,6.15
2023-04-05T19:33:59.608Z,6.03
2023-04-05T19:36:29.277Z,5.98
2023-04-05T19:38:57.857Z,5.94
2023-04-05T19:41:26.196Z,5.88
2023-04-05T19:43:54.312Z,4.66
2023-04-05T19:46:31.006Z,5.71
2023-04-05T19:49:11.540Z,5.51
2023-04-05T19:51:42.660Z,4.88
2023-04-05T19:54:14.722Z,5.45
2023-04-05T19:56:43.108Z,5.20
2023-04-05T19:59:30.631Z,5.11
2023-04-05T20:02:00.049Z,5.01
2023-04-05T20:04:34.447Z,4.76
2023-04-05T20:07:04.459Z,4.74
2023-04-05T20:09:34.386Z,4.73
2023-04-05T20:12:05.648Z,4.61
2023-04-05T20:14:42.569Z,4.75
2023-04-05T20:17:12.372Z,4.80
2023-04-05T20:19:42.484Z,4.58
2023-04-05T20:22:12.492Z,4.39
2023-04-05T20:24:40.998Z,4.09
2023-04-05T20:27:11.198Z,4.04
2023-04-05T20:29:39.431Z,3.93
2023-04-05T20:32:07.787Z,3.86
2023-04-05T20:34:37.994Z,3.94
2023-04-05T20:37:11.198Z,3.59
2023-04-05T20:39:40.802Z,4.06
2023-04-05T20:42:09.911Z,4.06
2023-04-05T20:44:38.175Z,4.05
2023-04-05T20:47:06.522Z,4.01
2023-04-05T20:49:34.727Z,4.18
2023-04-05T20:52:07.533Z,4.03
2023-04-05T20:54:35.834Z,3.88
2023-04-05T20:57:05.505Z,3.71
2023-04-05T20:59:33.764Z,3.55
2023-04-05T21:02:02.014Z,3.69
2023-04-05T21:04:30.817Z,3.60
2023-04-05T21:06:58.934Z,3.58
2023-04-05T21:09:27.833Z,3.48
2023-04-05T21:11:55.957Z,3.51
2023-04-05T21:14:26.582Z,3.45
2023-04-05T21:16:54.720Z,3.42
2023-04-05T21:19:22.872Z,3.21
2023-04-05T21:21:51.181Z,3.24
2023-04-05T21:24:19.310Z,3.02
2023-04-05T21:26:47.522Z,3.08
2023-04-05T21:29:15.943Z,2.97
2023-04-05T21:31:45.616Z,3.00
2023-04-05T21:34:13.860Z,2.94
2023-04-05T21:36:42.041Z,2.56
2023-04-05T21:39:10.404Z,2.41
2023-04-05T21:41:38.840Z,2.66
2023-04-05T21:44:07.298Z,2.41
2023-04-05T21:46:35.673Z,2.43
2023-04-05T21:49:05.383Z,2.37
2023-04-05T21:51:33.783Z,2.32
2023-04-05T21:54:02.025Z,2.29
2023-04-05T21:56:30.195Z,2.34
2023-04-05T21:58:58.400Z,2.20
2023-04-05T22:01:26.735Z,2.10
2023-04-05T22:03:58.225Z,1.99
2023-04-05T22:06:27.819Z,2.05
2023-04-05T22:08:56.115Z,2.10
2023-04-05T22:11:25.019Z,1.91
2023-04-05T22:13:53.773Z,1.72
2023-04-05T22:16:22.107Z,2.04
2023-04-05T22:18:50.309Z,2.00
2023-04-05T22:21:18.522Z,2.14
2023-04-05T22:23:48.219Z,1.96
2023-04-05T22:26:16.375Z,1.92
2023-04-05T22:28:44.641Z,1.93
2023-04-05T22:31:14.693Z,1.79
2023-04-05T22:33:42.978Z,1.73
2023-04-05T22:36:11.380Z,1.54
2023-04-05T22:38:39.748Z,1.48
2023-04-05T22:41:09.512Z,1.46
2023-04-05T22:43:39.775Z,1.44
2023-04-05T22:46:08.212Z,1.34
2023-04-05T22:48:36.419Z,1.26
2023-04-05T22:51:04.908Z,1.17
2023-04-05T22:53:33.384Z,1.14
2023-04-05T22:56:01.573Z,1.04
2023-04-05T22:58:32.818Z,1.22
2023-04-05T23:01:02.434Z,-0.38
2023-04-05T23:03:30.794Z,1.18
2023-04-05T23:05:58.966Z,1.19
2023-04-05T23:08:27.484Z,1.20
2023-04-05T23:10:55.888Z,0.00
2023-04-05T23:13:24.111Z,1.13
2023-04-05T23:15:53.879Z,1.51
2023-04-05T23:18:23.033Z,0.95
2023-04-05T23:20:51.692Z,0.83
2023-04-05T23:23:21.009Z,0.80
2023-04-05T23:25:49.293Z,0.94
2023-04-05T23:28:17.539Z,0.61
2023-04-05T23:30:45.747Z,0.81
2023-04-05T23:33:15.553Z,0.81
2023-04-05T23:35:43.855Z,0.86
2023-04-05T23:38:12.336Z,0.75
2023-04-05T23:40:40.822Z,0.57
2023-04-05T23:43:09.051Z,0.44
2023-04-05T23:45:37.264Z,0.47
2023-04-05T23:48:06.088Z,0.42
2023-04-05T23:50:35.676Z,0.34
2023-04-05T23:53:03.919Z,0.48
2023-04-05T23:55:32.924Z,0.27
2023-04-05T23:58:01.447Z,0.34
